HOURLY OBS INDEX

061

Hunter

CESSNOCK AIRPORT AWS

Site: 061260
Alt: 61.0m
30km SSE of SINGLETON


  Time     Wind        Temp  DP   Baro     Rain since   Rain past  Vis(m), Cloud(base in m), Weather
  local        km/h                         9am  last   hr   10m    
Sat 13:00    E 15/ 22  28.5 12.0  1015.9    0.0   0.0   0.0   0.0   ----- 
Sat 13:30   SE 20/ 26  28.2 13.7  1015.5    0.0   0.0   0.0   0.0   ----- 
Sat 14:00    E 24/ 35  28.8 16.0  1015.2    0.0   0.0   0.0   0.0   ----- 
Sat 14:30  ESE 22/ 37  27.8 14.8  1015.2    0.0   0.0   0.0   0.0   ----- 
Sat 15:00  ESE 22/ 30  27.5 14.8  1014.9    0.0   0.0   0.0   0.0   ----- 
Sat 15:30    E 22/ 32  27.4 14.4  1015.0    0.0   0.0   0.0   0.0   ----- 
Sat 16:00  ESE 20/ 30  27.3 13.6  1014.8    0.0   0.0   0.0   0.0   ----- 
Sat 16:30  ESE 24/ 35  26.6 14.0  1014.6    0.0   0.0   0.0   0.0   ----- 
Sat 17:00  ESE 22/ 30  26.1 14.9  1014.6    0.0   0.0   0.0   0.0   ----- 
Sat 17:30    E 24/ 30  25.6 15.9  1014.7    0.0   0.0   0.0   0.0   ----- 
Sat 18:00  ESE 22/ 30  24.7 16.9  1014.7    0.0   0.0   0.0   0.0   ----- 

COORANBONG (LAKE MACQUARIE AWS)

Site: 061412
Alt: 6.0m
35km WSW of NEWCASTLE


  Time     Wind        Temp  DP   Baro     Rain since   Rain past  Vis(m), Cloud(base in m), Weather
  local        km/h                         9am  last   hr   10m    
Sat 13:00    E 19/ 30  24.7 17.4  1017.4    0.0   0.0   0.0   0.0   ----- 
Sat 13:30    E 20/ 30  24.8 18.0  1017.2    0.0   0.0   0.0   0.0   ----- 
Sat 14:00    E 15/ 26  25.0 18.7  1017.1    0.0   0.0   0.0   0.0   ----- 
Sat 14:30  ENE 15/ 22  24.6 18.1  1016.8    0.0   0.0   0.0   0.0   ----- 
Sat 15:00  ENE 13/ 24  24.6 17.3  1016.6    0.0   0.0   0.0   0.0   ----- 
Sat 15:30    E 13/ 22  25.1 18.3  1016.5    0.0   0.0   0.0   0.0   ----- 
Sat 16:00    E 15/ 26  24.3 18.2  1016.4    0.0   0.0   0.0   0.0   ----- 
Sat 16:30    E 13/ 28  24.6 18.1  1016.2    0.0   0.0   0.0   0.0   ----- 
Sat 17:00    E 17/ 32  23.9 17.2  1016.1    0.0   0.0   0.0   0.0   ----- 
Sat 17:30    E 17/ 32  23.8 18.0  1016.0    0.0   0.0   0.0   0.0   ----- 
Sat 18:00  ENE 11/ 19  23.0 17.9  1016.1    0.0   0.0   0.0   0.0   ----- 

GOSFORD AWS

Site: 061425
Alt: 7.0m
km of


  Time     Wind        Temp  DP   Baro     Rain since   Rain past  Vis(m), Cloud(base in m), Weather
  local        km/h                         9am  last   hr   10m    
Sat 13:00  ENE 15/ 28  25.9 17.5  ------    0.0   0.0   0.0   0.0   ----- 
Sat 13:30    E 19/ 30  25.2 17.7  ------    0.0   0.0   0.0   0.0   ----- 
Sat 14:00    E 19/ 28  25.1 17.3  ------    0.0   0.0   0.0   0.0   ----- 
Sat 14:30  ENE 19/ 28  25.2 17.1  ------    0.0   0.0   0.0   0.0   ----- 
Sat 15:00    E 17/ 26  25.1 17.6  ------    0.0   0.0   0.0   0.0   ----- 
Sat 15:30    E 17/ 28  24.9 17.4  ------    0.0   0.0   0.0   0.0   ----- 
Sat 16:00    E 19/ 30  24.3 18.2  ------    0.0   0.0   0.0   0.0   ----- 
Sat 16:30    E 22/ 33  23.9 17.6  ------    0.0   0.0   0.0   0.0   ----- 
Sat 17:00    E 15/ 22  24.1 17.6  ------    0.0   0.0   0.0   0.0   ----- 
Sat 17:30    E 17/ 24  23.8 17.3  ------    0.0   0.0   0.0   0.0   ----- 
Sat 18:00    E 17/ 28  23.4 17.6  ------    0.0   0.0   0.0   0.0   ----- 

MAITLAND AIRPORT AWS

Site: 061428
Alt: 27.5m
37km NW of NEWCASTLE


  Time     Wind        Temp  DP   Baro     Rain since   Rain past  Vis(m), Cloud(base in m), Weather
  local        km/h                         9am  last   hr   10m    
Sat 13:00    E 15/ 26  28.1 16.7  1016.0    0.0   0.0   0.0   0.0   10000 
Sat 13:30  ESE 19/ 30  28.8 16.7  1015.7    0.0   0.0   0.0   0.0   10000 
Sat 14:00   SE 22/ 33  28.8 18.0  1015.4    0.0   0.0   0.0   0.0   10000 
Sat 14:30   SE 28/ 39  27.5 17.4  1015.3    0.0   0.0   0.0   0.0   10000 
Sat 15:00  ESE 28/ 37  27.9 16.5  1015.1    0.0   0.0   0.0   0.0   10000 
Sat 15:30    E 28/ 39  28.0 16.6  1015.0    0.0   0.0   0.0   0.0   10000 
Sat 16:00  ESE 28/ 45  27.1 16.1  1015.0    0.0   0.0   0.0   0.0   10000 
Sat 16:30  ESE 28/ 39  27.4 17.0  1014.6    0.0   0.0   0.0   0.0   10000 
Sat 17:00    E 28/ 43  26.8 17.0  1014.5    0.0   0.0   0.0   0.0   10000 
Sat 17:30    E 28/ 41  26.2 17.0  1014.7    0.0   0.0   0.0   0.0   10000 
Sat 18:00    E 24/ 35  25.5 17.9  1014.7    0.0   0.0   0.0   0.0   10000 

MANGROVE MOUNTAIN AWS

Site: 061375
Alt: 305.0m
19km NW of GOSFORD


  Time     Wind        Temp  DP   Baro     Rain since   Rain past  Vis(m), Cloud(base in m), Weather
  local        km/h                         9am  last   hr   10m    
Sat 13:00  ESE 13/ 26  26.8 14.2  ------    0.0   0.0   0.0   0.0   ----- 
Sat 13:30  ESE 15/ 24  26.7 14.8  ------    0.0   0.0   0.0   0.0   ----- 
Sat 14:00    E 13/ 20  26.9 15.3  ------    0.0   0.0   0.0   0.0   ----- 
Sat 14:30    E 17/ 24  26.2 15.3  ------    0.0   0.0   0.0   0.0   ----- 
Sat 15:00    E 17/ 26  25.7 13.2  ------    0.0   0.0   0.0   0.0   ----- 
Sat 15:30    E 15/ 26  25.2 14.3  ------    0.0   0.0   0.0   0.0   ----- 
Sat 16:00  ESE 17/ 28  24.8 14.0  ------    0.0   0.0   0.0   0.0   ----- 
Sat 16:30    E 17/ 30  24.0 14.1  ------    0.0   0.0   0.0   0.0   ----- 
Sat 17:00    E 17/ 26  23.8 15.6  ------    0.0   0.0   0.0   0.0   ----- 
Sat 17:30    E 15/ 24  23.4 15.5  ------    0.0   0.0   0.0   0.0   ----- 
Sat 18:00    E 13/ 24  22.9 15.2  ------    0.0   0.0   0.0   0.0   ----- 

MERRIWA (ROSCOMMON)

Site: 061287
Alt: 375.0m
68km W of MUSWELLBROOK


  Time     Wind        Temp  DP   Baro     Rain since   Rain past  Vis(m), Cloud(base in m), Weather
  local        km/h                         9am  last   hr   10m    
Sat 13:00   SE 15/ 28  29.9  7.2  1016.3    0.0   0.0   0.0   0.0   ----- 
Sat 13:30  SSE 17/ 22  30.5  7.0  1015.8    0.0   0.0   0.0   0.0   ----- 
Sat 14:00   SE 15/ 32  30.7  7.8  1015.4    0.0   0.0   0.0   0.0   ----- 
Sat 14:30  ESE 20/ 32  31.3  8.9  1015.0    0.0   0.0   0.0   0.0   ----- 
Sat 15:00    E 13/ 20  31.2  7.6  1014.6    0.0   0.0   0.0   0.0   ----- 
Sat 15:30  ESE 11/ 24  31.0  7.5  1014.1    0.0   0.0   0.0   0.0   ----- 
Sat 16:00  SSE 17/ 32  31.1  6.9  1013.7    0.0   0.0   0.0   0.0   ----- 
Sat 16:30    E 26/ 35  31.6  7.3  1013.5    0.0   0.0   0.0   0.0   ----- 
Sat 17:00  ESE 28/ 41  30.5  7.7  1013.4    0.0   0.0   0.0   0.0   ----- 
Sat 17:30    E 26/ 41  29.8  7.1  1013.5    0.0   0.0   0.0   0.0   ----- 
Sat 18:00    E 24/ 37  29.4  8.5  1013.4    0.0   0.0   0.0   0.0   ----- 

MURRURUNDI GAP AWS

Site: 061392
Alt: 729.4m
59km N of MUSWELLBROOK


  Time     Wind        Temp  DP   Baro     Rain since   Rain past  Vis(m), Cloud(base in m), Weather
  local        km/h                         9am  last   hr   10m    
Sat 13:00  ESE 20/ 26  26.4  5.4  1017.9    0.0   0.0   0.0   0.0   10000 
Sat 13:30  ESE 20/ 30  26.7  2.6  1017.5    0.0   0.0   0.0   0.0   10000 
Sat 14:00   SE 22/ 32  26.8  2.0  1017.1    0.0   0.0   0.0   0.0   10000 
Sat 14:30  ESE 20/ 30  27.0  5.9  1016.9    0.0   0.0   0.0   0.0   10000 
Sat 15:00   SE 22/ 32  27.2  4.9  1016.5    0.0   0.0   0.0   0.0   10000 
Sat 15:30  ESE 22/ 30  27.4  1.8  1016.2    0.0   0.0   0.0   0.0   10000 
Sat 16:00   SE 24/ 35  27.5  3.9  1015.9    0.0   0.0   0.0   0.0   10000 
Sat 16:30  SSE 20/ 39  27.0  3.5  1015.4    0.0   0.0   0.0   0.0   10000 
Sat 17:00    S 22/ 33  26.6  5.5  1015.3    0.0   0.0   0.0   0.0   10000 
Sat 17:30   SE 22/ 35  26.1  4.6  1015.2    0.0   0.0   0.0   0.0   10000 
Sat 18:00   SE 24/ 37  25.7  5.3  1015.2    0.0   0.0   0.0   0.0   10000 

NEWCASTLE NOBBYS SIGNAL STATION AWS

Site: 061055
Alt: 33.0m
2km NE of NEWCASTLE


  Time     Wind        Temp  DP   Baro     Rain since   Rain past  Vis(m), Cloud(base in m), Weather
  local        km/h                         9am  last   hr   10m    
Sat 13:00  ESE 26/ 28  21.3 21.3  ------    0.0   0.0   0.0   0.0   ----- 
Sat 13:30  ESE 26/ 28  21.4 21.4  ------    0.0   0.0   0.0   0.0   ----- 
Sat 14:00   SE 22/ 24  21.4 21.4  ------    0.0   0.0   0.0   0.0   ----- 
Sat 14:30   SE 20/ 24  21.5 21.5  ------    0.0   0.0   0.0   0.0   ----- 
Sat 15:00  ESE 20/ 22  21.3 21.3  ------    0.0   0.0   0.0   0.0   ----- 
Sat 15:30    E 22/ 24  21.3 21.3  ------    0.0   0.0   0.0   0.0   ----- 
Sat 16:00    E 22/ 26  21.3 21.0  ------    0.0   0.0   0.0   0.0   ----- 
Sat 16:30    E 22/ 26  21.2 21.2  ------    0.0   0.0   0.0   0.0   ----- 
Sat 17:00    E 20/ 24  21.0 21.0  ------    0.0   0.0   0.0   0.0   ----- 
Sat 17:30    E 17/ 20  20.9 20.9  ------    0.0   0.0   0.0   0.0   ----- 
Sat 18:00    E 17/ 19  20.7 20.7  ------    0.0   0.0   0.0   0.0   ----- 

NORAH HEAD AWS

Site: 061366
Alt: 18.8m
27km NE of GOSFORD


  Time     Wind        Temp  DP   Baro     Rain since   Rain past  Vis(m), Cloud(base in m), Weather
  local        km/h                         9am  last   hr   10m    
Sat 13:00    E 13/ 15  24.1 19.4  1017.7    0.0   0.0   0.0   0.0   ----- 
Sat 13:30    E 15/ 19  23.9 19.2  1017.5    0.0   0.0   0.0   0.0   ----- 
Sat 14:00    E 13/ 17  24.0 19.7  1017.3    0.0   0.0   0.0   0.0   ----- 
Sat 14:30    E 13/ 15  24.0 19.7  1017.0    0.0   0.0   0.0   0.0   ----- 
Sat 15:00  ESE 11/ 11  23.9 20.0  1016.9    0.0   0.0   0.0   0.0   ----- 
Sat 15:30  ESE  9/ 11  23.8 19.7  1016.8    0.0   0.0   0.0   0.0   ----- 
Sat 16:00  ESE 11/ 13  23.8 19.7  1016.6    0.0   0.0   0.0   0.0   ----- 
Sat 16:30    E 11/ 13  23.8 19.1  1016.4    0.0   0.0   0.0   0.0   ----- 
Sat 17:00    E  9/ 13  23.4 19.1  1016.2    0.0   0.0   0.0   0.0   ----- 
Sat 17:30  ENE 11/ 13  23.3 18.8  1016.1    0.0   0.0   0.0   0.0   ----- 
Sat 18:00  ENE 11/ 13  23.2 18.9  1016.1    0.0   0.0   0.0   0.0   ----- 

PATERSON (TOCAL AWS)

Site: 061250
Alt: 30.0m
38km NNW of NEWCASTLE


  Time     Wind        Temp  DP   Baro     Rain since   Rain past  Vis(m), Cloud(base in m), Weather
  local        km/h                         9am  last   hr   10m    
Sat 13:00    S 15/ 24  28.7 14.5  ------    0.0   0.0   0.0   0.0   ----- 
Sat 13:30  SSE 15/ 30  28.9 15.4  ------    0.0   0.0   0.0   0.0   ----- 
Sat 14:00   SE 19/ 28  29.7 16.2  ------    0.0   0.0   0.0   0.0   ----- 
Sat 14:30  SSE 20/ 35  28.4 14.9  ------    0.0   0.0   0.0   0.0   ----- 
Sat 15:00  SSE 20/ 32  28.2 13.6  ------    0.0   0.0   0.0   0.0   ----- 
Sat 15:30   SE 20/ 33  28.0 12.8  ------    0.0   0.0   0.0   0.0   ----- 
Sat 16:00   SE 22/ 32  27.5 11.4  ------    0.0   0.0   0.0   0.0   ----- 
Sat 16:30  SSE 19/ 30  27.6 13.6  ------    0.0   0.0   0.0   0.0   ----- 
Sat 17:00   SE 22/ 33  26.9 16.2  ------    0.0   0.0   0.0   0.0   ----- 
Sat 17:30   SE 17/ 28  26.5 17.0  ------    0.0   0.0   0.0   0.0   ----- 
Sat 18:00   SE 19/ 28  26.0 17.5  ------    0.0   0.0   0.0   0.0   ----- 

SCONE AIRPORT AWS

Site: 061363
Alt: 221.4m
26km NNW of MUSWELLBROOK


  Time     Wind        Temp  DP   Baro     Rain since   Rain past  Vis(m), Cloud(base in m), Weather
  local        km/h                         9am  last   hr   10m    
Sat 13:00    S 19/ 30  31.0  7.5  1015.2    0.0   0.0   0.0   0.0   ----- 
Sat 13:30    S 22/ 35  31.5  7.2  1014.7    0.0   0.0   0.0   0.0   ----- 
Sat 14:00    S 24/ 35  31.5  4.3  1014.3    0.0   0.0   0.0   0.0   ----- 
Sat 14:30    S 24/ 37  31.1  4.0  1014.0    0.0   0.0   0.0   0.0   ----- 
Sat 15:00  SSE 20/ 43  32.0  5.5  1013.6    0.0   0.0   0.0   0.0   ----- 
Sat 15:30    S 15/ 28  31.4  7.1  1013.3    0.0   0.0   0.0   0.0   ----- 
Sat 16:00    S 28/ 43  31.4  7.8  1013.0    0.0   0.0   0.0   0.0   ----- 
Sat 16:30  SSE 28/ 39  31.8  6.8  1012.8    0.0   0.0   0.0   0.0   ----- 
Sat 17:00   SE 24/ 33  31.0  6.1  1012.6    0.0   0.0   0.0   0.0   ----- 
Sat 17:30    S 35/ 46  30.3 11.3  1012.6    0.0   0.0   0.0   0.0   ----- 
Sat 18:00  SSE 32/ 43  29.5 12.4  1012.7    0.0   0.0   0.0   0.0   ----- 

SINGLETON (DEFENCE)

Site: 061430
Alt: 125.0m
km of


  Time     Wind        Temp  DP   Baro     Rain since   Rain past  Vis(m), Cloud(base in m), Weather
  local        km/h                         9am  last   hr   10m    
Sat 13:00  ESE 19/ 32  29.2 11.3  ------    0.0   0.0   0.0   0.0   ----- 
Sat 13:30    E 20/ 24  29.6 11.6  ------    0.0   0.0   0.0   0.0   ----- 
Sat 14:00  ESE 20/ 28  30.3 11.8  ------    0.0   0.0   0.0   0.0   ----- 
Sat 14:30  ESE 22/ 37  29.2 12.2  ------    0.0   0.0   0.0   0.0   ----- 
Sat 15:00  ESE 24/ 37  29.1 12.1  ------    0.0   0.0   0.0   0.0   ----- 
Sat 15:30  ESE 24/ 33  28.9 13.2  ------    0.0   0.0   0.0   0.0   ----- 
Sat 16:00  ESE 30/ 39  28.1 12.5  ------    0.0   0.0   0.0   0.0   ----- 
Sat 16:30  ESE 28/ 37  28.3 12.2  ------    0.0   0.0   0.0   0.0   ----- 
Sat 17:00  ESE 30/ 43  27.4 13.0  ------    0.0   0.0   0.0   0.0   ----- 
Sat 17:30  ESE 32/ 45  26.5 12.9  ------    0.0   0.0   0.0   0.0   ----- 
Sat 18:00  ESE 32/ 43  25.6 14.1  ------    0.0   0.0   0.0   0.0   ----- 

WILLIAMTOWN RAAF

Site: 061078
Alt: 7.5m
16km NNE of NEWCASTLE


  Time     Wind        Temp  DP   Baro     Rain since   Rain past  Vis(m), Cloud(base in m), Weather
  local        km/h                         9am  last   hr   10m    
Sat 13:00  ESE 30/ 39  26.4 16.6  1016.6    0.0   0.0   0.0   0.0   10000 
Sat 13:30  ESE 32/ 41  26.0 16.5  1016.6    0.0   0.0   0.0   0.0   10000 
Sat 14:00  ESE 32/ 41  25.8 16.9  1016.3    0.0   0.0   0.0   0.0   10000 
Sat 14:30    E 32/ 39  25.9 17.0  1016.1    0.0   0.0   0.0   0.0   10000 
Sat 15:00  ESE 28/ 35  25.9 17.5  1016.0    0.0   0.0   0.0   0.0   10000 
Sat 15:30  ESE 33/ 41  25.3 17.7  1015.8    0.0   0.0   0.0   0.0   10000 
Sat 16:00    E 28/ 35  25.6 18.0  1015.6    0.0   0.0   0.0   0.0   10000 
Sat 16:30    E 32/ 48  25.1 18.3  1015.3    0.0   0.0   0.0   0.0   10000 
Sat 16:32    E 30/ 48  25.2 18.2  1015.3    0.0   0.0  ----   0.0   10000 
Sat 17:00    E 26/ 39  24.8 17.8  1015.3    0.0   0.0   0.0   0.0   10000 
Sat 17:30    E 28/ 41  24.8 18.0  1015.1    0.0   0.0   0.0   0.0   10000 
Sat 18:00  ENE 22/ 39  24.6 17.1  1015.2    0.0   0.0   0.0   0.0   10000